sensor_id;sensor_type;location;lat;lon;timestamp;temperature;humidity
37874;DHT22;23709;48.078;11.684;2023-08-31T00:01:12;13.30;99.90
37874;DHT22;23709;48.078;11.684;2023-08-31T00:03:46;13.30;99.90
37874;DHT22;23709;48.078;11.684;2023-08-31T00:06:18;13.30;99.90
37874;DHT22;23709;48.078;11.684;2023-08-31T00:08:51;13.30;99.90
37874;DHT22;23709;48.078;11.684;2023-08-31T00:11:23;13.20;99.90
37874;DHT22;23709;48.078;11.684;2023-08-31T00:13:55;13.20;99.90
37874;DHT22;23709;48.078;11.684;2023-08-31T00:16:27;13.20;99.90
37874;DHT22;23709;48.078;11.684;2023-08-31T00:18:59;13.20;99.90
37874;DHT22;23709;48.078;11.684;2023-08-31T00:21:32;13.20;99.90
37874;DHT22;23709;48.078;11.684;2023-08-31T00:24:05;13.10;99.90
37874;DHT22;23709;48.078;11.684;2023-08-31T00:26:37;13.10;99.90
37874;DHT22;23709;48.078;11.684;2023-08-31T00:29:12;13.10;99.90
37874;DHT22;23709;48.078;11.684;2023-08-31T00:31:46;13.10;99.90
37874;DHT22;23709;48.078;11.684;2023-08-31T00:34:20;13.10;99.90
37874;DHT22;23709;48.078;11.684;2023-08-31T00:36:52;13.00;99.90
37874;DHT22;23709;48.078;11.684;2023-08-31T00:39:24;13.10;99.90
37874;DHT22;23709;48.078;11.684;2023-08-31T00:41:56;13.00;99.90
37874;DHT22;23709;48.078;11.684;2023-08-31T00:44:28;13.00;99.90
37874;DHT22;23709;48.078;11.684;2023-08-31T00:47:01;13.00;99.90
37874;DHT22;23709;48.078;11.684;2023-08-31T00:49:37;13.00;99.90
37874;DHT22;23709;48.078;11.684;2023-08-31T00:52:09;13.10;99.90
37874;DHT22;23709;48.078;11.684;2023-08-31T00:54:42;13.00;99.90
37874;DHT22;23709;48.078;11.684;2023-08-31T00:57:14;13.00;99.90
37874;DHT22;23709;48.078;11.684;2023-08-31T00:59:47;13.00;99.90
37874;DHT22;23709;48.078;11.684;2023-08-31T01:02:25;12.90;99.90
37874;DHT22;23709;48.078;11.684;2023-08-31T01:05:54;12.90;99.90
37874;DHT22;23709;48.078;11.684;2023-08-31T01:10:43;12.90;99.90
37874;DHT22;23709;48.078;11.684;2023-08-31T01:13:19;12.90;99.90
37874;DHT22;23709;48.078;11.684;2023-08-31T01:15:55;13.00;99.90
37874;DHT22;23709;48.078;11.684;2023-08-31T01:18:28;12.90;99.90
37874;DHT22;23709;48.078;11.684;2023-08-31T01:23:52;12.90;99.90
37874;DHT22;23709;48.078;11.684;2023-08-31T01:26:27;12.90;99.90
37874;DHT22;23709;48.078;11.684;2023-08-31T01:29:00;12.90;99.90
37874;DHT22;23709;48.078;11.684;2023-08-31T01:31:32;12.90;99.90
37874;DHT22;23709;48.078;11.684;2023-08-31T01:34:04;12.90;99.90
37874;DHT22;23709;48.078;11.684;2023-08-31T01:36:38;12.90;99.90
37874;DHT22;23709;48.078;11.684;2023-08-31T01:41:51;12.80;99.90
37874;DHT22;23709;48.078;11.684;2023-08-31T01:44:27;12.80;99.90
37874;DHT22;23709;48.078;11.684;2023-08-31T01:47:04;12.90;99.90
37874;DHT22;23709;48.078;11.684;2023-08-31T01:49:39;12.90;99.90
37874;DHT22;23709;48.078;11.684;2023-08-31T01:52:11;12.90;99.90
37874;DHT22;23709;48.078;11.684;2023-08-31T01:54:43;13.00;99.90
37874;DHT22;23709;48.078;11.684;2023-08-31T01:57:15;13.00;99.90
37874;DHT22;23709;48.078;11.684;2023-08-31T02:00:04;13.00;99.90
37874;DHT22;23709;48.078;11.684;2023-08-31T02:02:45;13.00;99.90
37874;DHT22;23709;48.078;11.684;2023-08-31T02:05:18;13.00;99.90
37874;DHT22;23709;48.078;11.684;2023-08-31T02:07:50;13.10;99.90
37874;DHT22;23709;48.078;11.684;2023-08-31T02:10:22;13.10;99.90
37874;DHT22;23709;48.078;11.684;2023-08-31T02:12:54;13.10;99.90
37874;DHT22;23709;48.078;11.684;2023-08-31T02:15:26;13.20;99.90
37874;DHT22;23709;48.078;11.684;2023-08-31T02:17:58;13.20;99.90
37874;DHT22;23709;48.078;11.684;2023-08-31T02:20:31;13.20;99.90
37874;DHT22;23709;48.078;11.684;2023-08-31T02:23:03;13.20;99.90
37874;DHT22;23709;48.078;11.684;2023-08-31T02:25:35;13.20;99.90
37874;DHT22;23709;48.078;11.684;2023-08-31T02:28:07;13.30;99.90
37874;DHT22;23709;48.078;11.684;2023-08-31T02:30:43;13.30;99.90
37874;DHT22;23709;48.078;11.684;2023-08-31T02:33:15;13.30;99.90
37874;DHT22;23709;48.078;11.684;2023-08-31T02:35:47;13.30;99.90
37874;DHT22;23709;48.078;11.684;2023-08-31T02:38:22;13.20;99.90
37874;DHT22;23709;48.078;11.684;2023-08-31T02:40:55;13.20;99.90
37874;DHT22;23709;48.078;11.684;2023-08-31T02:43:27;13.20;99.90
37874;DHT22;23709;48.078;11.684;2023-08-31T02:46:00;13.20;99.90
37874;DHT22;23709;48.078;11.684;2023-08-31T02:48:33;13.10;99.90
37874;DHT22;23709;48.078;11.684;2023-08-31T02:51:06;13.00;99.90
37874;DHT22;23709;48.078;11.684;2023-08-31T02:53:38;12.90;99.90
37874;DHT22;23709;48.078;11.684;2023-08-31T02:56:10;12.90;99.90
37874;DHT22;23709;48.078;11.684;2023-08-31T02:58:42;12.90;99.90
37874;DHT22;23709;48.078;11.684;2023-08-31T03:01:14;13.00;99.90
37874;DHT22;23709;48.078;11.684;2023-08-31T03:03:51;12.90;99.90
37874;DHT22;23709;48.078;11.684;2023-08-31T03:06:25;12.90;99.90
37874;DHT22;23709;48.078;11.684;2023-08-31T03:08:57;12.90;99.90
37874;DHT22;23709;48.078;11.684;2023-08-31T03:11:30;12.90;99.90
37874;DHT22;23709;48.078;11.684;2023-08-31T03:14:03;12.90;99.90
37874;DHT22;23709;48.078;11.684;2023-08-31T03:16:35;12.90;99.90
37874;DHT22;23709;48.078;11.684;2023-08-31T03:19:08;13.00;99.90
37874;DHT22;23709;48.078;11.684;2023-08-31T03:21:41;12.90;99.90
37874;DHT22;23709;48.078;11.684;2023-08-31T03:24:13;12.90;99.90
37874;DHT22;23709;48.078;11.684;2023-08-31T03:26:45;12.90;99.90
37874;DHT22;23709;48.078;11.684;2023-08-31T03:29:17;12.80;99.90
37874;DHT22;23709;48.078;11.684;2023-08-31T03:31:49;12.90;99.90
37874;DHT22;23709;48.078;11.684;2023-08-31T03:34:21;12.80;99.90
37874;DHT22;23709;48.078;11.684;2023-08-31T03:36:53;12.80;99.90
37874;DHT22;23709;48.078;11.684;2023-08-31T03:39:26;12.80;99.90
37874;DHT22;23709;48.078;11.684;2023-08-31T03:41:59;12.80;99.90
37874;DHT22;23709;48.078;11.684;2023-08-31T03:44:31;12.70;99.90
37874;DHT22;23709;48.078;11.684;2023-08-31T03:47:04;12.80;99.90
37874;DHT22;23709;48.078;11.684;2023-08-31T03:49:36;12.80;99.90
37874;DHT22;23709;48.078;11.684;2023-08-31T03:52:09;12.70;99.90
37874;DHT22;23709;48.078;11.684;2023-08-31T03:54:41;12.70;99.90
37874;DHT22;23709;48.078;11.684;2023-08-31T03:57:13;12.70;99.90
37874;DHT22;23709;48.078;11.684;2023-08-31T03:59:45;12.60;99.90
37874;DHT22;23709;48.078;11.684;2023-08-31T04:02:17;12.70;99.90
37874;DHT22;23709;48.078;11.684;2023-08-31T04:04:49;12.70;99.90
37874;DHT22;23709;48.078;11.684;2023-08-31T04:07:22;12.70;99.90
37874;DHT22;23709;48.078;11.684;2023-08-31T04:09:54;12.80;99.90
37874;DHT22;23709;48.078;11.684;2023-08-31T04:12:26;12.80;99.90
37874;DHT22;23709;48.078;11.684;2023-08-31T04:15:03;12.80;99.90
37874;DHT22;23709;48.078;11.684;2023-08-31T04:17:36;12.70;99.90
37874;DHT22;23709;48.078;11.684;2023-08-31T04:20:09;12.70;99.90
37874;DHT22;23709;48.078;11.684;2023-08-31T04:22:41;12.70;99.90
37874;DHT22;23709;48.078;11.684;2023-08-31T04:25:13;12.70;99.90
37874;DHT22;23709;48.078;11.684;2023-08-31T04:27:45;12.80;99.90
37874;DHT22;23709;48.078;11.684;2023-08-31T04:30:17;12.80;99.90
37874;DHT22;23709;48.078;11.684;2023-08-31T04:32:58;12.70;99.90
37874;DHT22;23709;48.078;11.684;2023-08-31T04:35:31;12.70;99.90
37874;DHT22;23709;48.078;11.684;2023-08-31T04:38:04;12.70;99.90
37874;DHT22;23709;48.078;11.684;2023-08-31T04:40:37;12.80;99.90
37874;DHT22;23709;48.078;11.684;2023-08-31T04:43:09;12.90;99.90
37874;DHT22;23709;48.078;11.684;2023-08-31T04:45:43;12.90;99.90
37874;DHT22;23709;48.078;11.684;2023-08-31T04:48:16;13.00;99.90
37874;DHT22;23709;48.078;11.684;2023-08-31T04:50:48;13.00;99.90
37874;DHT22;23709;48.078;11.684;2023-08-31T04:53:20;13.00;99.90
37874;DHT22;23709;48.078;11.684;2023-08-31T04:55:52;13.00;99.90
37874;DHT22;23709;48.078;11.684;2023-08-31T04:58:25;13.00;99.90
37874;DHT22;23709;48.078;11.684;2023-08-31T05:00:57;13.00;99.90
37874;DHT22;23709;48.078;11.684;2023-08-31T05:03:29;13.10;99.90
37874;DHT22;23709;48.078;11.684;2023-08-31T05:06:01;13.10;99.90
37874;DHT22;23709;48.078;11.684;2023-08-31T05:08:36;13.10;99.90
37874;DHT22;23709;48.078;11.684;2023-08-31T05:11:08;13.00;99.90
37874;DHT22;23709;48.078;11.684;2023-08-31T05:13:40;13.00;99.90
37874;DHT22;23709;48.078;11.684;2023-08-31T05:16:16;13.00;99.90
37874;DHT22;23709;48.078;11.684;2023-08-31T05:18:48;13.00;99.90
37874;DHT22;23709;48.078;11.684;2023-08-31T05:21:20;13.00;99.90
37874;DHT22;23709;48.078;11.684;2023-08-31T05:23:53;13.10;99.90
37874;DHT22;23709;48.078;11.684;2023-08-31T05:26:25;13.00;99.90
37874;DHT22;23709;48.078;11.684;2023-08-31T05:28:57;13.10;99.90
37874;DHT22;23709;48.078;11.684;2023-08-31T05:31:29;13.20;99.90
37874;DHT22;23709;48.078;11.684;2023-08-31T05:34:01;13.20;99.90
37874;DHT22;23709;48.078;11.684;2023-08-31T05:36:34;13.20;99.90
37874;DHT22;23709;48.078;11.684;2023-08-31T05:39:06;13.20;99.90
37874;DHT22;23709;48.078;11.684;2023-08-31T05:41:40;13.30;99.90
37874;DHT22;23709;48.078;11.684;2023-08-31T05:44:13;13.30;99.90
37874;DHT22;23709;48.078;11.684;2023-08-31T05:46:45;13.30;99.90
37874;DHT22;23709;48.078;11.684;2023-08-31T05:49:17;13.40;99.90
37874;DHT22;23709;48.078;11.684;2023-08-31T05:51:49;13.40;99.90
37874;DHT22;23709;48.078;11.684;2023-08-31T05:54:23;13.50;99.90
37874;DHT22;23709;48.078;11.684;2023-08-31T05:56:55;13.50;99.90
37874;DHT22;23709;48.078;11.684;2023-08-31T05:59:27;13.50;99.90
37874;DHT22;23709;48.078;11.684;2023-08-31T06:01:59;13.60;99.90
37874;DHT22;23709;48.078;11.684;2023-08-31T06:04:31;13.60;99.90
37874;DHT22;23709;48.078;11.684;2023-08-31T06:07:03;13.60;99.90
37874;DHT22;23709;48.078;11.684;2023-08-31T06:09:35;13.70;99.90
37874;DHT22;23709;48.078;11.684;2023-08-31T06:12:09;13.70;99.90
37874;DHT22;23709;48.078;11.684;2023-08-31T06:14:41;13.70;99.90
37874;DHT22;23709;48.078;11.684;2023-08-31T06:17:14;13.70;99.90
37874;DHT22;23709;48.078;11.684;2023-08-31T06:19:47;13.60;99.90
37874;DHT22;23709;48.078;11.684;2023-08-31T06:22:19;13.60;99.90
37874;DHT22;23709;48.078;11.684;2023-08-31T06:24:53;13.70;99.90
37874;DHT22;23709;48.078;11.684;2023-08-31T06:27:26;13.60;99.90
37874;DHT22;23709;48.078;11.684;2023-08-31T06:29:58;13.60;99.90
37874;DHT22;23709;48.078;11.684;2023-08-31T06:32:30;13.70;99.90
37874;DHT22;23709;48.078;11.684;2023-08-31T06:35:02;13.70;99.90
37874;DHT22;23709;48.078;11.684;2023-08-31T06:37:34;13.70;99.90
37874;DHT22;23709;48.078;11.684;2023-08-31T06:40:07;13.70;99.90
37874;DHT22;23709;48.078;11.684;2023-08-31T06:42:42;13.80;99.90
37874;DHT22;23709;48.078;11.684;2023-08-31T06:45:15;13.90;99.90
37874;DHT22;23709;48.078;11.684;2023-08-31T06:47:47;13.90;99.90
37874;DHT22;23709;48.078;11.684;2023-08-31T06:50:19;13.90;99.90
37874;DHT22;23709;48.078;11.684;2023-08-31T06:52:51;13.90;99.90
37874;DHT22;23709;48.078;11.684;2023-08-31T06:55:23;13.90;99.90
37874;DHT22;23709;48.078;11.684;2023-08-31T06:57:56;14.00;99.90
37874;DHT22;23709;48.078;11.684;2023-08-31T07:00:28;14.00;99.90
37874;DHT22;23709;48.078;11.684;2023-08-31T07:03:00;14.10;99.90
37874;DHT22;23709;48.078;11.684;2023-08-31T07:05:34;14.10;99.90
37874;DHT22;23709;48.078;11.684;2023-08-31T07:08:10;14.10;99.90
37874;DHT22;23709;48.078;11.684;2023-08-31T07:10:42;14.10;99.90
37874;DHT22;23709;48.078;11.684;2023-08-31T07:13:15;14.20;99.90
37874;DHT22;23709;48.078;11.684;2023-08-31T07:15:47;14.20;99.90
37874;DHT22;23709;48.078;11.684;2023-08-31T07:18:20;14.20;99.90
37874;DHT22;23709;48.078;11.684;2023-08-31T07:20:53;14.20;99.90
37874;DHT22;23709;48.078;11.684;2023-08-31T07:23:25;14.10;99.90
37874;DHT22;23709;48.078;11.684;2023-08-31T07:25:57;14.20;99.90
37874;DHT22;23709;48.078;11.684;2023-08-31T07:28:31;14.30;99.90
37874;DHT22;23709;48.078;11.684;2023-08-31T07:31:04;14.30;99.90
37874;DHT22;23709;48.078;11.684;2023-08-31T07:33:37;14.30;99.90
37874;DHT22;23709;48.078;11.684;2023-08-31T07:36:09;14.40;99.90
37874;DHT22;23709;48.078;11.684;2023-08-31T07:38:42;14.50;99.90
37874;DHT22;23709;48.078;11.684;2023-08-31T07:41:14;14.60;99.90
37874;DHT22;23709;48.078;11.684;2023-08-31T07:43:46;14.60;99.90
37874;DHT22;23709;48.078;11.684;2023-08-31T07:46:35;14.60;99.90
37874;DHT22;23709;48.078;11.684;2023-08-31T07:49:07;14.60;99.90
37874;DHT22;23709;48.078;11.684;2023-08-31T07:51:40;14.60;99.90
37874;DHT22;23709;48.078;11.684;2023-08-31T07:54:18;14.50;99.90
37874;DHT22;23709;48.078;11.684;2023-08-31T07:56:50;14.50;99.90
37874;DHT22;23709;48.078;11.684;2023-08-31T07:59:23;14.50;99.90
37874;DHT22;23709;48.078;11.684;2023-08-31T08:01:55;14.50;99.90
37874;DHT22;23709;48.078;11.684;2023-08-31T08:04:28;14.60;99.90
37874;DHT22;23709;48.078;11.684;2023-08-31T08:07:02;14.70;99.90
37874;DHT22;23709;48.078;11.684;2023-08-31T08:09:35;14.70;99.90
37874;DHT22;23709;48.078;11.684;2023-08-31T08:12:08;14.80;99.90
37874;DHT22;23709;48.078;11.684;2023-08-31T08:14:40;14.80;99.90
37874;DHT22;23709;48.078;11.684;2023-08-31T08:17:12;15.00;99.90
37874;DHT22;23709;48.078;11.684;2023-08-31T08:19:44;15.10;99.90
37874;DHT22;23709;48.078;11.684;2023-08-31T08:22:16;15.20;99.90
37874;DHT22;23709;48.078;11.684;2023-08-31T08:24:48;15.20;99.90
37874;DHT22;23709;48.078;11.684;2023-08-31T08:27:20;15.20;99.90
37874;DHT22;23709;48.078;11.684;2023-08-31T08:29:52;15.20;99.90
37874;DHT22;23709;48.078;11.684;2023-08-31T08:32:25;15.40;99.90
37874;DHT22;23709;48.078;11.684;2023-08-31T08:34:57;15.50;99.90
37874;DHT22;23709;48.078;11.684;2023-08-31T08:37:29;15.50;99.90
37874;DHT22;23709;48.078;11.684;2023-08-31T08:40:01;15.50;99.90
37874;DHT22;23709;48.078;11.684;2023-08-31T08:42:36;15.40;99.90
37874;DHT22;23709;48.078;11.684;2023-08-31T08:45:14;15.30;99.90
37874;DHT22;23709;48.078;11.684;2023-08-31T08:47:47;15.40;99.90
37874;DHT22;23709;48.078;11.684;2023-08-31T08:50:20;15.40;99.90
37874;DHT22;23709;48.078;11.684;2023-08-31T08:52:53;15.50;99.90
37874;DHT22;23709;48.078;11.684;2023-08-31T08:55:25;15.60;99.90
37874;DHT22;23709;48.078;11.684;2023-08-31T08:57:58;15.60;99.90
37874;DHT22;23709;48.078;11.684;2023-08-31T09:00:30;15.60;99.90
37874;DHT22;23709;48.078;11.684;2023-08-31T09:03:03;15.70;99.90
37874;DHT22;23709;48.078;11.684;2023-08-31T09:05:35;15.70;99.90
37874;DHT22;23709;48.078;11.684;2023-08-31T09:08:08;15.90;99.90
37874;DHT22;23709;48.078;11.684;2023-08-31T09:10:44;15.90;99.90
37874;DHT22;23709;48.078;11.684;2023-08-31T09:13:17;16.20;99.90
37874;DHT22;23709;48.078;11.684;2023-08-31T09:15:49;16.30;99.90
37874;DHT22;23709;48.078;11.684;2023-08-31T09:18:26;16.40;99.90
37874;DHT22;23709;48.078;11.684;2023-08-31T09:20:59;16.40;99.90
37874;DHT22;23709;48.078;11.684;2023-08-31T09:23:32;16.30;99.90
37874;DHT22;23709;48.078;11.684;2023-08-31T09:26:05;16.10;99.90
37874;DHT22;23709;48.078;11.684;2023-08-31T09:28:40;16.20;99.90
37874;DHT22;23709;48.078;11.684;2023-08-31T09:31:12;16.20;99.90
37874;DHT22;23709;48.078;11.684;2023-08-31T09:33:51;16.10;99.90
37874;DHT22;23709;48.078;11.684;2023-08-31T09:36:23;16.20;99.90
37874;DHT22;23709;48.078;11.684;2023-08-31T09:38:59;16.10;99.90
37874;DHT22;23709;48.078;11.684;2023-08-31T09:41:31;16.10;99.90
37874;DHT22;23709;48.078;11.684;2023-08-31T09:44:16;16.00;99.90
37874;DHT22;23709;48.078;11.684;2023-08-31T09:46:49;16.10;99.90
37874;DHT22;23709;48.078;11.684;2023-08-31T09:49:21;16.10;99.90
37874;DHT22;23709;48.078;11.684;2023-08-31T09:51:53;16.10;99.90
37874;DHT22;23709;48.078;11.684;2023-08-31T09:54:26;16.00;99.90
37874;DHT22;23709;48.078;11.684;2023-08-31T09:57:00;16.00;99.90
37874;DHT22;23709;48.078;11.684;2023-08-31T09:59:34;16.10;99.90
37874;DHT22;23709;48.078;11.684;2023-08-31T10:02:07;16.30;99.90
37874;DHT22;23709;48.078;11.684;2023-08-31T10:04:41;16.60;99.90
37874;DHT22;23709;48.078;11.684;2023-08-31T10:07:14;16.90;99.90
37874;DHT22;23709;48.078;11.684;2023-08-31T10:09:46;17.10;99.90
37874;DHT22;23709;48.078;11.684;2023-08-31T10:12:19;17.30;99.90
37874;DHT22;23709;48.078;11.684;2023-08-31T10:14:53;17.40;99.90
37874;DHT22;23709;48.078;11.684;2023-08-31T10:17:26;17.20;99.90
37874;DHT22;23709;48.078;11.684;2023-08-31T10:19:59;17.20;99.90
37874;DHT22;23709;48.078;11.684;2023-08-31T10:22:31;17.10;99.90
37874;DHT22;23709;48.078;11.684;2023-08-31T10:25:05;17.10;99.90
37874;DHT22;23709;48.078;11.684;2023-08-31T10:27:42;17.00;99.90
37874;DHT22;23709;48.078;11.684;2023-08-31T10:30:24;16.90;99.90
37874;DHT22;23709;48.078;11.684;2023-08-31T10:41:34;16.90;99.90
37874;DHT22;23709;48.078;11.684;2023-08-31T10:43:52;17.10;99.90
37874;DHT22;23709;48.078;11.684;2023-08-31T10:51:42;17.10;99.90
37874;DHT22;23709;48.078;11.684;2023-08-31T10:56:53;17.20;99.90
37874;DHT22;23709;48.078;11.684;2023-08-31T11:05:16;17.40;99.90
37874;DHT22;23709;48.078;11.684;2023-08-31T11:07:49;17.50;99.90
37874;DHT22;23709;48.078;11.684;2023-08-31T11:10:25;17.60;99.90
37874;DHT22;23709;48.078;11.684;2023-08-31T11:13:00;17.60;99.90
37874;DHT22;23709;48.078;11.684;2023-08-31T11:15:32;17.30;99.90
37874;DHT22;23709;48.078;11.684;2023-08-31T11:18:04;17.50;99.90
37874;DHT22;23709;48.078;11.684;2023-08-31T11:20:36;17.80;99.90
37874;DHT22;23709;48.078;11.684;2023-08-31T11:23:09;18.00;99.90
37874;DHT22;23709;48.078;11.684;2023-08-31T11:25:42;18.00;99.90
37874;DHT22;23709;48.078;11.684;2023-08-31T11:28:15;18.10;99.90
37874;DHT22;23709;48.078;11.684;2023-08-31T11:30:48;18.00;99.90
37874;DHT22;23709;48.078;11.684;2023-08-31T11:33:20;17.60;99.90
37874;DHT22;23709;48.078;11.684;2023-08-31T11:35:52;17.40;99.90
37874;DHT22;23709;48.078;11.684;2023-08-31T11:38:25;17.40;99.90
37874;DHT22;23709;48.078;11.684;2023-08-31T11:40:57;17.30;99.90
37874;DHT22;23709;48.078;11.684;2023-08-31T11:43:31;17.20;99.90
37874;DHT22;23709;48.078;11.684;2023-08-31T11:46:03;17.10;99.90
37874;DHT22;23709;48.078;11.684;2023-08-31T11:48:36;16.90;99.90
37874;DHT22;23709;48.078;11.684;2023-08-31T11:51:08;16.90;99.90
37874;DHT22;23709;48.078;11.684;2023-08-31T11:53:40;16.70;99.90
37874;DHT22;23709;48.078;11.684;2023-08-31T11:56:13;16.80;99.90
37874;DHT22;23709;48.078;11.684;2023-08-31T11:58:45;17.00;99.90
37874;DHT22;23709;48.078;11.684;2023-08-31T12:01:39;17.60;99.90
37874;DHT22;23709;48.078;11.684;2023-08-31T12:04:19;18.30;99.90
37874;DHT22;23709;48.078;11.684;2023-08-31T12:06:52;18.90;99.90
37874;DHT22;23709;48.078;11.684;2023-08-31T12:09:25;19.40;99.90
37874;DHT22;23709;48.078;11.684;2023-08-31T12:11:59;19.80;99.90
37874;DHT22;23709;48.078;11.684;2023-08-31T12:14:37;20.30;99.90
37874;DHT22;23709;48.078;11.684;2023-08-31T12:17:11;20.30;99.90
37874;DHT22;23709;48.078;11.684;2023-08-31T12:19:45;20.50;99.90
37874;DHT22;23709;48.078;11.684;2023-08-31T12:22:18;20.20;99.90
37874;DHT22;23709;48.078;11.684;2023-08-31T12:24:50;19.90;99.90
37874;DHT22;23709;48.078;11.684;2023-08-31T12:27:22;19.70;99.90
37874;DHT22;23709;48.078;11.684;2023-08-31T12:29:54;20.00;99.90
37874;DHT22;23709;48.078;11.684;2023-08-31T12:32:27;20.10;99.90
37874;DHT22;23709;48.078;11.684;2023-08-31T12:34:59;20.40;99.90
37874;DHT22;23709;48.078;11.684;2023-08-31T12:37:31;20.70;99.90
37874;DHT22;23709;48.078;11.684;2023-08-31T12:40:04;21.20;99.90
37874;DHT22;23709;48.078;11.684;2023-08-31T12:42:39;21.50;99.90
37874;DHT22;23709;48.078;11.684;2023-08-31T12:45:11;21.10;99.90
37874;DHT22;23709;48.078;11.684;2023-08-31T12:47:43;21.40;99.90
37874;DHT22;23709;48.078;11.684;2023-08-31T12:50:17;21.20;99.90
37874;DHT22;23709;48.078;11.684;2023-08-31T12:52:49;20.70;99.90
37874;DHT22;23709;48.078;11.684;2023-08-31T12:55:22;20.70;99.90
37874;DHT22;23709;48.078;11.684;2023-08-31T12:57:54;20.70;99.90
37874;DHT22;23709;48.078;11.684;2023-08-31T13:00:26;21.10;99.90
37874;DHT22;23709;48.078;11.684;2023-08-31T13:02:59;21.50;99.90
37874;DHT22;23709;48.078;11.684;2023-08-31T13:05:32;22.00;99.90
37874;DHT22;23709;48.078;11.684;2023-08-31T13:08:04;22.50;99.90
37874;DHT22;23709;48.078;11.684;2023-08-31T13:10:38;22.80;97.70
37874;DHT22;23709;48.078;11.684;2023-08-31T13:13:10;22.20;98.50
37874;DHT22;23709;48.078;11.684;2023-08-31T13:15:42;22.60;99.00
37874;DHT22;23709;48.078;11.684;2023-08-31T13:18:16;23.00;97.80
37874;DHT22;23709;48.078;11.684;2023-08-31T13:20:52;22.80;95.40
37874;DHT22;23709;48.078;11.684;2023-08-31T13:23:24;22.90;96.40
37874;DHT22;23709;48.078;11.684;2023-08-31T13:25:56;22.80;96.30
37874;DHT22;23709;48.078;11.684;2023-08-31T13:28:28;22.50;96.70
37874;DHT22;23709;48.078;11.684;2023-08-31T13:31:01;22.00;97.30
37874;DHT22;23709;48.078;11.684;2023-08-31T13:33:33;21.90;97.30
37874;DHT22;23709;48.078;11.684;2023-08-31T13:36:05;21.40;96.70
37874;DHT22;23709;48.078;11.684;2023-08-31T13:38:37;21.30;97.80
37874;DHT22;23709;48.078;11.684;2023-08-31T13:41:09;20.90;97.50
37874;DHT22;23709;48.078;11.684;2023-08-31T13:43:41;21.00;99.50
37874;DHT22;23709;48.078;11.684;2023-08-31T13:46:14;21.00;98.60
37874;DHT22;23709;48.078;11.684;2023-08-31T13:48:46;20.90;98.50
37874;DHT22;23709;48.078;11.684;2023-08-31T13:51:20;20.70;98.10
37874;DHT22;23709;48.078;11.684;2023-08-31T13:53:52;20.80;97.60
37874;DHT22;23709;48.078;11.684;2023-08-31T13:56:24;21.20;97.60
37874;DHT22;23709;48.078;11.684;2023-08-31T13:58:56;21.20;97.50
37874;DHT22;23709;48.078;11.684;2023-08-31T14:01:31;21.10;98.50
37874;DHT22;23709;48.078;11.684;2023-08-31T14:04:03;20.80;98.40
37874;DHT22;23709;48.078;11.684;2023-08-31T14:06:36;20.60;98.40
37874;DHT22;23709;48.078;11.684;2023-08-31T14:09:08;20.60;98.50
37874;DHT22;23709;48.078;11.684;2023-08-31T14:11:40;20.60;98.40
37874;DHT22;23709;48.078;11.684;2023-08-31T14:14:12;20.80;98.70
37874;DHT22;23709;48.078;11.684;2023-08-31T14:16:44;20.60;96.90
37874;DHT22;23709;48.078;11.684;2023-08-31T14:19:16;20.80;98.30
37874;DHT22;23709;48.078;11.684;2023-08-31T14:21:50;20.70;97.80
37874;DHT22;23709;48.078;11.684;2023-08-31T14:24:24;20.60;97.10
37874;DHT22;23709;48.078;11.684;2023-08-31T14:26:56;20.70;98.30
37874;DHT22;23709;48.078;11.684;2023-08-31T14:29:29;20.60;98.00
37874;DHT22;23709;48.078;11.684;2023-08-31T14:32:01;20.60;98.00
37874;DHT22;23709;48.078;11.684;2023-08-31T14:34:34;20.40;97.80
37874;DHT22;23709;48.078;11.684;2023-08-31T14:37:06;20.20;97.90
37874;DHT22;23709;48.078;11.684;2023-08-31T14:39:39;20.10;97.80
37874;DHT22;23709;48.078;11.684;2023-08-31T14:42:11;20.10;97.80
37874;DHT22;23709;48.078;11.684;2023-08-31T14:44:43;20.20;99.10
37874;DHT22;23709;48.078;11.684;2023-08-31T14:47:16;20.10;99.10
37874;DHT22;23709;48.078;11.684;2023-08-31T14:49:48;20.30;98.00
37874;DHT22;23709;48.078;11.684;2023-08-31T14:52:20;20.10;97.60
37874;DHT22;23709;48.078;11.684;2023-08-31T14:54:53;20.10;97.90
37874;DHT22;23709;48.078;11.684;2023-08-31T14:57:27;20.20;98.80
37874;DHT22;23709;48.078;11.684;2023-08-31T15:00:00;20.20;99.20
37874;DHT22;23709;48.078;11.684;2023-08-31T15:02:34;20.20;97.50
37874;DHT22;23709;48.078;11.684;2023-08-31T15:05:07;20.10;98.00
37874;DHT22;23709;48.078;11.684;2023-08-31T15:07:39;20.00;98.00
37874;DHT22;23709;48.078;11.684;2023-08-31T15:10:11;20.00;97.90
37874;DHT22;23709;48.078;11.684;2023-08-31T15:12:43;20.00;98.60
37874;DHT22;23709;48.078;11.684;2023-08-31T15:15:15;19.90;97.90
37874;DHT22;23709;48.078;11.684;2023-08-31T15:17:49;20.00;98.40
37874;DHT22;23709;48.078;11.684;2023-08-31T15:20:21;19.90;97.50
37874;DHT22;23709;48.078;11.684;2023-08-31T15:22:53;19.90;98.00
37874;DHT22;23709;48.078;11.684;2023-08-31T15:25:25;19.80;96.50
37874;DHT22;23709;48.078;11.684;2023-08-31T15:27:58;19.70;97.20
37874;DHT22;23709;48.078;11.684;2023-08-31T15:30:31;19.50;97.50
37874;DHT22;23709;48.078;11.684;2023-08-31T15:33:04;19.40;97.30
37874;DHT22;23709;48.078;11.684;2023-08-31T15:35:36;19.40;98.00
37874;DHT22;23709;48.078;11.684;2023-08-31T15:38:09;19.40;98.60
37874;DHT22;23709;48.078;11.684;2023-08-31T15:40:45;19.50;97.80
37874;DHT22;23709;48.078;11.684;2023-08-31T15:43:20;19.40;98.20
37874;DHT22;23709;48.078;11.684;2023-08-31T15:45:53;19.30;97.50
37874;DHT22;23709;48.078;11.684;2023-08-31T15:48:25;19.20;97.50
37874;DHT22;23709;48.078;11.684;2023-08-31T15:50:59;19.10;98.30
37874;DHT22;23709;48.078;11.684;2023-08-31T15:53:31;19.20;98.50
37874;DHT22;23709;48.078;11.684;2023-08-31T15:56:03;19.20;97.70
37874;DHT22;23709;48.078;11.684;2023-08-31T15:58:36;19.00;98.60
37874;DHT22;23709;48.078;11.684;2023-08-31T16:01:12;19.00;98.00
37874;DHT22;23709;48.078;11.684;2023-08-31T16:03:44;18.90;99.90
37874;DHT22;23709;48.078;11.684;2023-08-31T16:06:16;18.90;99.40
37874;DHT22;23709;48.078;11.684;2023-08-31T16:08:48;18.80;99.90
37874;DHT22;23709;48.078;11.684;2023-08-31T16:11:20;18.70;98.70
37874;DHT22;23709;48.078;11.684;2023-08-31T16:13:56;18.70;99.40
37874;DHT22;23709;48.078;11.684;2023-08-31T16:16:28;18.80;99.90
37874;DHT22;23709;48.078;11.684;2023-08-31T16:19:00;18.90;99.90
37874;DHT22;23709;48.078;11.684;2023-08-31T16:21:32;18.80;99.90